sensor_id;sensor_type;location;lat;lon;timestamp;temperature;humidity
6956;DHT22;50345;51.136;16.886;2023-03-15T00:01:37;3.70;99.90
6956;DHT22;50345;51.136;16.886;2023-03-15T00:04:03;3.70;99.90
6956;DHT22;50345;51.136;16.886;2023-03-15T00:06:31;3.70;99.90
6956;DHT22;50345;51.136;16.886;2023-03-15T00:09:01;3.70;99.90
6956;DHT22;50345;51.136;16.886;2023-03-15T00:11:28;3.70;99.90
6956;DHT22;50345;51.136;16.886;2023-03-15T00:13:56;3.70;99.90
6956;DHT22;50345;51.136;16.886;2023-03-15T00:16:21;3.70;99.90
6956;DHT22;50345;51.136;16.886;2023-03-15T00:18:53;3.70;99.90
6956;DHT22;50345;51.136;16.886;2023-03-15T00:21:19;3.80;99.90
6956;DHT22;50345;51.136;16.886;2023-03-15T00:23:45;3.80;99.90
6956;DHT22;50345;51.136;16.886;2023-03-15T00:26:11;3.80;99.90
6956;DHT22;50345;51.136;16.886;2023-03-15T00:28:36;3.80;99.90
6956;DHT22;50345;51.136;16.886;2023-03-15T00:33:29;3.90;99.90
6956;DHT22;50345;51.136;16.886;2023-03-15T00:36:02;3.90;99.90
6956;DHT22;50345;51.136;16.886;2023-03-15T00:38:27;3.90;99.90
6956;DHT22;50345;51.136;16.886;2023-03-15T00:40:53;3.80;99.90
6956;DHT22;50345;51.136;16.886;2023-03-15T00:43:18;3.80;99.90
6956;DHT22;50345;51.136;16.886;2023-03-15T00:45:44;3.80;99.90
6956;DHT22;50345;51.136;16.886;2023-03-15T00:48:10;3.80;99.90
6956;DHT22;50345;51.136;16.886;2023-03-15T00:50:35;3.80;99.90
6956;DHT22;50345;51.136;16.886;2023-03-15T00:53:01;3.80;99.90
6956;DHT22;50345;51.136;16.886;2023-03-15T00:55:27;3.80;99.90
6956;DHT22;50345;51.136;16.886;2023-03-15T00:57:52;3.80;99.90
6956;DHT22;50345;51.136;16.886;2023-03-15T01:00:20;3.80;99.90
6956;DHT22;50345;51.136;16.886;2023-03-15T01:02:52;3.70;99.90
6956;DHT22;50345;51.136;16.886;2023-03-15T01:05:18;3.70;99.90
6956;DHT22;50345;51.136;16.886;2023-03-15T01:07:44;3.70;99.90
6956;DHT22;50345;51.136;16.886;2023-03-15T01:10:10;3.60;99.90
6956;DHT22;50345;51.136;16.886;2023-03-15T01:12:36;3.60;99.90
6956;DHT22;50345;51.136;16.886;2023-03-15T01:15:03;3.60;99.90
6956;DHT22;50345;51.136;16.886;2023-03-15T01:17:29;3.60;99.90
6956;DHT22;50345;51.136;16.886;2023-03-15T01:19:55;3.60;99.90
6956;DHT22;50345;51.136;16.886;2023-03-15T01:22:20;3.60;99.90
6956;DHT22;50345;51.136;16.886;2023-03-15T01:24:46;3.60;99.90
6956;DHT22;50345;51.136;16.886;2023-03-15T01:27:12;3.60;99.90
6956;DHT22;50345;51.136;16.886;2023-03-15T01:29:37;3.60;99.90
6956;DHT22;50345;51.136;16.886;2023-03-15T01:32:03;3.50;99.90
6956;DHT22;50345;51.136;16.886;2023-03-15T01:34:29;3.60;99.90
6956;DHT22;50345;51.136;16.886;2023-03-15T01:36:55;3.60;99.90
6956;DHT22;50345;51.136;16.886;2023-03-15T01:39:20;3.60;99.90
6956;DHT22;50345;51.136;16.886;2023-03-15T01:41:46;3.60;99.90
6956;DHT22;50345;51.136;16.886;2023-03-15T01:44:17;3.50;99.90
6956;DHT22;50345;51.136;16.886;2023-03-15T01:46:44;3.50;99.90
6956;DHT22;50345;51.136;16.886;2023-03-15T01:49:14;3.50;99.90
6956;DHT22;50345;51.136;16.886;2023-03-15T01:51:56;3.50;99.90
6956;DHT22;50345;51.136;16.886;2023-03-15T01:54:24;3.40;99.90
6956;DHT22;50345;51.136;16.886;2023-03-15T01:57:09;3.40;99.90
6956;DHT22;50345;51.136;16.886;2023-03-15T01:59:40;3.30;99.90
6956;DHT22;50345;51.136;16.886;2023-03-15T02:02:06;3.30;99.90
6956;DHT22;50345;51.136;16.886;2023-03-15T02:04:37;3.20;99.90
6956;DHT22;50345;51.136;16.886;2023-03-15T02:07:05;3.30;99.90
6956;DHT22;50345;51.136;16.886;2023-03-15T02:10:12;3.30;99.90
6956;DHT22;50345;51.136;16.886;2023-03-15T02:12:44;3.30;99.90
6956;DHT22;50345;51.136;16.886;2023-03-15T02:15:11;3.30;99.90
6956;DHT22;50345;51.136;16.886;2023-03-15T02:17:40;3.30;99.90
6956;DHT22;50345;51.136;16.886;2023-03-15T02:22:53;3.30;99.90
6956;DHT22;50345;51.136;16.886;2023-03-15T02:27:55;3.20;99.90
6956;DHT22;50345;51.136;16.886;2023-03-15T02:30:21;3.20;99.90
6956;DHT22;50345;51.136;16.886;2023-03-15T02:32:47;3.20;99.90
6956;DHT22;50345;51.136;16.886;2023-03-15T02:35:24;3.10;99.90
6956;DHT22;50345;51.136;16.886;2023-03-15T02:37:50;3.10;99.90
6956;DHT22;50345;51.136;16.886;2023-03-15T02:40:19;3.10;99.90
6956;DHT22;50345;51.136;16.886;2023-03-15T02:42:45;3.10;99.90
6956;DHT22;50345;51.136;16.886;2023-03-15T02:45:13;3.00;99.90
6956;DHT22;50345;51.136;16.886;2023-03-15T02:47:39;3.00;99.90
6956;DHT22;50345;51.136;16.886;2023-03-15T02:50:05;3.00;99.90
6956;DHT22;50345;51.136;16.886;2023-03-15T02:52:32;3.00;99.90
6956;DHT22;50345;51.136;16.886;2023-03-15T02:54:58;3.00;99.90
6956;DHT22;50345;51.136;16.886;2023-03-15T02:57:23;3.00;99.90
6956;DHT22;50345;51.136;16.886;2023-03-15T02:59:49;3.00;99.90
6956;DHT22;50345;51.136;16.886;2023-03-15T03:02:15;3.00;99.90
6956;DHT22;50345;51.136;16.886;2023-03-15T03:04:40;3.00;99.90
6956;DHT22;50345;51.136;16.886;2023-03-15T03:07:06;3.10;99.90
6956;DHT22;50345;51.136;16.886;2023-03-15T03:09:32;3.00;99.90
6956;DHT22;50345;51.136;16.886;2023-03-15T03:11:58;3.00;99.90
6956;DHT22;50345;51.136;16.886;2023-03-15T03:14:24;3.00;99.90
6956;DHT22;50345;51.136;16.886;2023-03-15T03:16:50;3.00;99.90
6956;DHT22;50345;51.136;16.886;2023-03-15T03:19:16;3.10;99.90
6956;DHT22;50345;51.136;16.886;2023-03-15T03:21:42;3.00;99.90
6956;DHT22;50345;51.136;16.886;2023-03-15T03:24:08;3.00;99.90
6956;DHT22;50345;51.136;16.886;2023-03-15T03:26:34;3.00;99.90
6956;DHT22;50345;51.136;16.886;2023-03-15T03:29:02;3.00;99.90
6956;DHT22;50345;51.136;16.886;2023-03-15T03:31:30;3.00;99.90
6956;DHT22;50345;51.136;16.886;2023-03-15T03:33:58;3.00;99.90
6956;DHT22;50345;51.136;16.886;2023-03-15T03:36:23;3.00;99.90
6956;DHT22;50345;51.136;16.886;2023-03-15T03:38:49;3.10;99.90
6956;DHT22;50345;51.136;16.886;2023-03-15T03:41:16;3.00;99.90
6956;DHT22;50345;51.136;16.886;2023-03-15T03:43:42;3.00;99.90
6956;DHT22;50345;51.136;16.886;2023-03-15T03:46:07;2.90;99.90
6956;DHT22;50345;51.136;16.886;2023-03-15T03:48:33;2.90;99.90
6956;DHT22;50345;51.136;16.886;2023-03-15T03:50:59;3.00;99.90
6956;DHT22;50345;51.136;16.886;2023-03-15T03:53:24;3.00;99.90
6956;DHT22;50345;51.136;16.886;2023-03-15T03:55:50;3.00;99.90
6956;DHT22;50345;51.136;16.886;2023-03-15T03:58:15;2.90;99.90
6956;DHT22;50345;51.136;16.886;2023-03-15T04:00:41;2.90;99.90
6956;DHT22;50345;51.136;16.886;2023-03-15T04:03:07;2.90;99.90
6956;DHT22;50345;51.136;16.886;2023-03-15T04:05:33;2.90;99.90
6956;DHT22;50345;51.136;16.886;2023-03-15T04:07:59;2.90;99.90
6956;DHT22;50345;51.136;16.886;2023-03-15T04:10:25;2.90;99.90
6956;DHT22;50345;51.136;16.886;2023-03-15T04:12:54;2.90;99.90
6956;DHT22;50345;51.136;16.886;2023-03-15T04:15:21;2.90;99.90
6956;DHT22;50345;51.136;16.886;2023-03-15T04:17:48;2.80;99.90
6956;DHT22;50345;51.136;16.886;2023-03-15T04:20:14;2.80;99.90
6956;DHT22;50345;51.136;16.886;2023-03-15T04:22:42;2.80;99.90
6956;DHT22;50345;51.136;16.886;2023-03-15T04:25:17;2.70;99.90
6956;DHT22;50345;51.136;16.886;2023-03-15T04:27:42;2.70;99.90
6956;DHT22;50345;51.136;16.886;2023-03-15T04:30:09;2.60;99.90
6956;DHT22;50345;51.136;16.886;2023-03-15T04:32:35;2.60;99.90
6956;DHT22;50345;51.136;16.886;2023-03-15T04:35:00;2.50;99.90
6956;DHT22;50345;51.136;16.886;2023-03-15T04:37:27;2.50;99.90
6956;DHT22;50345;51.136;16.886;2023-03-15T04:39:53;2.50;99.90
6956;DHT22;50345;51.136;16.886;2023-03-15T04:42:19;2.50;99.90
6956;DHT22;50345;51.136;16.886;2023-03-15T04:44:45;2.40;99.90
6956;DHT22;50345;51.136;16.886;2023-03-15T04:47:11;2.40;99.90
6956;DHT22;50345;51.136;16.886;2023-03-15T04:49:37;2.40;99.90
6956;DHT22;50345;51.136;16.886;2023-03-15T04:52:02;2.40;99.90
6956;DHT22;50345;51.136;16.886;2023-03-15T04:54:28;2.40;99.90
6956;DHT22;50345;51.136;16.886;2023-03-15T04:56:54;2.40;99.90
6956;DHT22;50345;51.136;16.886;2023-03-15T04:59:19;2.40;99.90
6956;DHT22;50345;51.136;16.886;2023-03-15T05:01:45;2.30;99.90
6956;DHT22;50345;51.136;16.886;2023-03-15T05:04:10;2.30;99.90
6956;DHT22;50345;51.136;16.886;2023-03-15T05:06:37;2.20;99.90
6956;DHT22;50345;51.136;16.886;2023-03-15T05:09:03;2.20;99.90
6956;DHT22;50345;51.136;16.886;2023-03-15T05:11:29;2.30;99.90
6956;DHT22;50345;51.136;16.886;2023-03-15T05:13:54;2.20;99.90
6956;DHT22;50345;51.136;16.886;2023-03-15T05:16:20;2.20;99.90
6956;DHT22;50345;51.136;16.886;2023-03-15T05:18:45;2.30;99.90
6956;DHT22;50345;51.136;16.886;2023-03-15T05:21:12;2.30;99.90
6956;DHT22;50345;51.136;16.886;2023-03-15T05:23:37;2.30;99.90
6956;DHT22;50345;51.136;16.886;2023-03-15T05:26:03;2.30;99.90
6956;DHT22;50345;51.136;16.886;2023-03-15T05:28:29;2.30;99.90
6956;DHT22;50345;51.136;16.886;2023-03-15T05:30:56;2.30;99.90
6956;DHT22;50345;51.136;16.886;2023-03-15T05:33:21;2.30;99.90
6956;DHT22;50345;51.136;16.886;2023-03-15T05:35:49;2.40;99.90
6956;DHT22;50345;51.136;16.886;2023-03-15T05:38:15;2.40;99.90
6956;DHT22;50345;51.136;16.886;2023-03-15T05:40:42;2.40;99.90
6956;DHT22;50345;51.136;16.886;2023-03-15T05:43:08;2.40;99.90
6956;DHT22;50345;51.136;16.886;2023-03-15T05:45:35;2.40;99.90
6956;DHT22;50345;51.136;16.886;2023-03-15T05:48:00;2.40;99.90
6956;DHT22;50345;51.136;16.886;2023-03-15T05:50:26;2.50;99.90
6956;DHT22;50345;51.136;16.886;2023-03-15T05:52:53;2.50;99.90
6956;DHT22;50345;51.136;16.886;2023-03-15T05:55:19;2.50;99.90
6956;DHT22;50345;51.136;16.886;2023-03-15T05:57:45;2.60;99.90
6956;DHT22;50345;51.136;16.886;2023-03-15T06:00:11;2.70;99.90
6956;DHT22;50345;51.136;16.886;2023-03-15T06:02:40;2.80;99.90
6956;DHT22;50345;51.136;16.886;2023-03-15T06:05:06;2.90;99.90
6956;DHT22;50345;51.136;16.886;2023-03-15T06:07:32;2.90;99.90
6956;DHT22;50345;51.136;16.886;2023-03-15T06:09:57;3.00;99.90
6956;DHT22;50345;51.136;16.886;2023-03-15T06:12:23;3.00;99.90
6956;DHT22;50345;51.136;16.886;2023-03-15T06:14:48;3.10;99.90
6956;DHT22;50345;51.136;16.886;2023-03-15T06:17:14;3.10;99.90
6956;DHT22;50345;51.136;16.886;2023-03-15T06:19:39;3.20;99.90
6956;DHT22;50345;51.136;16.886;2023-03-15T06:22:05;3.20;99.90
6956;DHT22;50345;51.136;16.886;2023-03-15T06:24:31;3.20;99.90
6956;DHT22;50345;51.136;16.886;2023-03-15T06:26:57;3.30;99.90
6956;DHT22;50345;51.136;16.886;2023-03-15T06:29:22;3.40;99.90
6956;DHT22;50345;51.136;16.886;2023-03-15T06:31:48;3.50;99.90
6956;DHT22;50345;51.136;16.886;2023-03-15T06:34:15;3.60;99.90
6956;DHT22;50345;51.136;16.886;2023-03-15T06:36:40;3.60;99.90
6956;DHT22;50345;51.136;16.886;2023-03-15T06:39:10;3.70;99.90
6956;DHT22;50345;51.136;16.886;2023-03-15T06:41:37;3.70;99.90
6956;DHT22;50345;51.136;16.886;2023-03-15T06:44:04;3.80;99.90
6956;DHT22;50345;51.136;16.886;2023-03-15T06:46:30;3.90;99.90
6956;DHT22;50345;51.136;16.886;2023-03-15T06:48:55;3.90;99.90
6956;DHT22;50345;51.136;16.886;2023-03-15T06:51:21;4.10;99.90
6956;DHT22;50345;51.136;16.886;2023-03-15T06:53:47;4.20;99.90
6956;DHT22;50345;51.136;16.886;2023-03-15T06:56:13;4.30;99.90
6956;DHT22;50345;51.136;16.886;2023-03-15T06:58:38;4.40;99.90
6956;DHT22;50345;51.136;16.886;2023-03-15T07:01:04;4.50;99.90
6956;DHT22;50345;51.136;16.886;2023-03-15T07:03:30;4.50;99.90
6956;DHT22;50345;51.136;16.886;2023-03-15T07:05:55;4.50;99.90
6956;DHT22;50345;51.136;16.886;2023-03-15T07:08:23;4.60;99.90
6956;DHT22;50345;51.136;16.886;2023-03-15T07:10:49;4.80;99.90
6956;DHT22;50345;51.136;16.886;2023-03-15T07:13:15;4.80;99.90
6956;DHT22;50345;51.136;16.886;2023-03-15T07:15:41;4.90;99.90
6956;DHT22;50345;51.136;16.886;2023-03-15T07:18:06;4.90;99.90
6956;DHT22;50345;51.136;16.886;2023-03-15T07:20:32;5.00;99.90
6956;DHT22;50345;51.136;16.886;2023-03-15T07:22:58;5.00;99.90
6956;DHT22;50345;51.136;16.886;2023-03-15T07:25:23;5.10;99.90
6956;DHT22;50345;51.136;16.886;2023-03-15T07:27:50;5.10;99.90
6956;DHT22;50345;51.136;16.886;2023-03-15T07:30:17;5.10;99.90
6956;DHT22;50345;51.136;16.886;2023-03-15T07:32:43;5.00;99.90
6956;DHT22;50345;51.136;16.886;2023-03-15T07:35:09;5.00;99.90
6956;DHT22;50345;51.136;16.886;2023-03-15T07:37:35;4.90;99.90
6956;DHT22;50345;51.136;16.886;2023-03-15T07:40:00;5.00;99.90
6956;DHT22;50345;51.136;16.886;2023-03-15T07:42:35;4.90;99.90
6956;DHT22;50345;51.136;16.886;2023-03-15T07:45:01;4.90;99.90
6956;DHT22;50345;51.136;16.886;2023-03-15T07:47:27;5.00;99.90
6956;DHT22;50345;51.136;16.886;2023-03-15T07:49:52;5.20;99.90
6956;DHT22;50345;51.136;16.886;2023-03-15T07:52:18;5.20;99.90
6956;DHT22;50345;51.136;16.886;2023-03-15T07:54:45;5.30;99.90
6956;DHT22;50345;51.136;16.886;2023-03-15T07:57:11;5.40;99.90
6956;DHT22;50345;51.136;16.886;2023-03-15T07:59:37;5.50;99.90
6956;DHT22;50345;51.136;16.886;2023-03-15T08:02:02;5.50;99.90
6956;DHT22;50345;51.136;16.886;2023-03-15T08:04:28;5.50;99.90
6956;DHT22;50345;51.136;16.886;2023-03-15T08:06:53;5.60;99.90
6956;DHT22;50345;51.136;16.886;2023-03-15T08:09:19;5.60;99.90
6956;DHT22;50345;51.136;16.886;2023-03-15T08:11:44;5.60;99.90
6956;DHT22;50345;51.136;16.886;2023-03-15T08:14:10;5.70;99.90
6956;DHT22;50345;51.136;16.886;2023-03-15T08:19:57;5.90;99.90
6956;DHT22;50345;51.136;16.886;2023-03-15T08:22:23;6.20;99.90
6956;DHT22;50345;51.136;16.886;2023-03-15T08:24:49;6.40;99.90
6956;DHT22;50345;51.136;16.886;2023-03-15T08:27:17;6.50;99.90
6956;DHT22;50345;51.136;16.886;2023-03-15T08:29:43;6.50;99.90
6956;DHT22;50345;51.136;16.886;2023-03-15T08:32:09;6.70;99.90
6956;DHT22;50345;51.136;16.886;2023-03-15T08:34:36;6.90;99.90
6956;DHT22;50345;51.136;16.886;2023-03-15T08:37:02;7.20;99.90
6956;DHT22;50345;51.136;16.886;2023-03-15T08:39:27;7.30;99.90
6956;DHT22;50345;51.136;16.886;2023-03-15T08:41:53;8.10;99.90
6956;DHT22;50345;51.136;16.886;2023-03-15T08:44:18;8.10;99.90
6956;DHT22;50345;51.136;16.886;2023-03-15T08:49:10;8.40;95.20
6956;DHT22;50345;51.136;16.886;2023-03-15T08:51:36;8.50;96.10
6956;DHT22;50345;51.136;16.886;2023-03-15T08:56:28;8.70;94.40
6956;DHT22;50345;51.136;16.886;2023-03-15T08:58:54;8.80;94.60
6956;DHT22;50345;51.136;16.886;2023-03-15T09:01:19;9.10;91.10
6956;DHT22;50345;51.136;16.886;2023-03-15T09:03:45;9.30;90.60
6956;DHT22;50345;51.136;16.886;2023-03-15T09:06:11;9.50;91.30
6956;DHT22;50345;51.136;16.886;2023-03-15T09:08:37;10.20;85.70
6956;DHT22;50345;51.136;16.886;2023-03-15T09:11:02;10.50;76.00
6956;DHT22;50345;51.136;16.886;2023-03-15T09:13:29;10.80;71.10
6956;DHT22;50345;51.136;16.886;2023-03-15T09:15:55;11.20;72.60
6956;DHT22;50345;51.136;16.886;2023-03-15T09:18:22;11.40;74.00
6956;DHT22;50345;51.136;16.886;2023-03-15T09:20:48;12.60;63.20
6956;DHT22;50345;51.136;16.886;2023-03-15T09:23:14;12.60;63.30
6956;DHT22;50345;51.136;16.886;2023-03-15T09:25:40;12.60;61.80
6956;DHT22;50345;51.136;16.886;2023-03-15T09:28:07;12.30;60.60
6956;DHT22;50345;51.136;16.886;2023-03-15T09:30:35;12.00;59.90
6956;DHT22;50345;51.136;16.886;2023-03-15T09:33:01;11.80;59.80
6956;DHT22;50345;51.136;16.886;2023-03-15T09:35:27;11.70;59.10
6956;DHT22;50345;51.136;16.886;2023-03-15T09:37:53;11.90;57.80
6956;DHT22;50345;51.136;16.886;2023-03-15T09:42:52;13.40;54.00
6956;DHT22;50345;51.136;16.886;2023-03-15T09:48:12;13.70;53.10
6956;DHT22;50345;51.136;16.886;2023-03-15T09:53:13;12.50;53.30
6956;DHT22;50345;51.136;16.886;2023-03-15T09:55:41;12.50;54.10
6956;DHT22;50345;51.136;16.886;2023-03-15T09:58:21;13.30;53.30
6956;DHT22;50345;51.136;16.886;2023-03-15T10:00:49;14.30;50.70
6956;DHT22;50345;51.136;16.886;2023-03-15T10:03:48;14.60;51.20
6956;DHT22;50345;51.136;16.886;2023-03-15T10:06:20;15.80;47.50
6956;DHT22;50345;51.136;16.886;2023-03-15T10:08:50;16.70;45.60
6956;DHT22;50345;51.136;16.886;2023-03-15T10:11:34;15.10;43.80
6956;DHT22;50345;51.136;16.886;2023-03-15T10:16:45;13.80;46.70
6956;DHT22;50345;51.136;16.886;2023-03-15T10:19:52;13.40;48.20
6956;DHT22;50345;51.136;16.886;2023-03-15T10:25:17;13.90;49.00
6956;DHT22;50345;51.136;16.886;2023-03-15T10:27:48;17.30;44.90
6956;DHT22;50345;51.136;16.886;2023-03-15T10:32:51;19.30;40.40
6956;DHT22;50345;51.136;16.886;2023-03-15T10:35:19;18.40;37.70
6956;DHT22;50345;51.136;16.886;2023-03-15T10:37:46;17.30;38.20
6956;DHT22;50345;51.136;16.886;2023-03-15T10:40:13;17.50;39.30
6956;DHT22;50345;51.136;16.886;2023-03-15T10:42:42;17.30;40.30
6956;DHT22;50345;51.136;16.886;2023-03-15T10:45:24;18.20;39.60
6956;DHT22;50345;51.136;16.886;2023-03-15T10:47:50;17.90;38.00
6956;DHT22;50345;51.136;16.886;2023-03-15T10:50:28;15.90;38.10
6956;DHT22;50345;51.136;16.886;2023-03-15T10:52:56;15.60;39.90
6956;DHT22;50345;51.136;16.886;2023-03-15T10:55:43;13.50;40.10
6956;DHT22;50345;51.136;16.886;2023-03-15T10:58:27;12.30;41.80
6956;DHT22;50345;51.136;16.886;2023-03-15T11:00:59;12.10;42.40
6956;DHT22;50345;51.136;16.886;2023-03-15T11:03:26;11.40;43.60
6956;DHT22;50345;51.136;16.886;2023-03-15T11:05:55;11.00;45.20
6956;DHT22;50345;51.136;16.886;2023-03-15T11:08:24;10.70;45.40
6956;DHT22;50345;51.136;16.886;2023-03-15T11:10:57;10.60;46.00
6956;DHT22;50345;51.136;16.886;2023-03-15T11:13:31;10.60;47.20
6956;DHT22;50345;51.136;16.886;2023-03-15T11:16:07;11.10;47.60
6956;DHT22;50345;51.136;16.886;2023-03-15T11:18:51;11.60;47.00
6956;DHT22;50345;51.136;16.886;2023-03-15T11:21:25;12.30;45.00
6956;DHT22;50345;51.136;16.886;2023-03-15T11:23:53;12.30;45.50
6956;DHT22;50345;51.136;16.886;2023-03-15T11:26:24;12.00;45.40
6956;DHT22;50345;51.136;16.886;2023-03-15T11:28:54;11.80;46.60
6956;DHT22;50345;51.136;16.886;2023-03-15T11:31:24;11.50;46.90
6956;DHT22;50345;51.136;16.886;2023-03-15T11:36:23;10.50;47.40
6956;DHT22;50345;51.136;16.886;2023-03-15T11:38:51;10.20;48.40
6956;DHT22;50345;51.136;16.886;2023-03-15T11:41:38;10.00;49.80
6956;DHT22;50345;51.136;16.886;2023-03-15T11:49:55;9.80;52.80
6956;DHT22;50345;51.136;16.886;2023-03-15T11:52:26;10.00;51.30
6956;DHT22;50345;51.136;16.886;2023-03-15T11:55:00;10.20;51.00
6956;DHT22;50345;51.136;16.886;2023-03-15T11:57:46;11.10;49.00
6956;DHT22;50345;51.136;16.886;2023-03-15T12:06:01;11.30;47.20
6956;DHT22;50345;51.136;16.886;2023-03-15T12:10:59;10.70;47.10
6956;DHT22;50345;51.136;16.886;2023-03-15T12:13:28;12.10;47.60
6956;DHT22;50345;51.136;16.886;2023-03-15T12:15:54;12.40;47.70
6956;DHT22;50345;51.136;16.886;2023-03-15T12:18:31;13.30;44.40
6956;DHT22;50345;51.136;16.886;2023-03-15T12:21:21;14.40;43.00
6956;DHT22;50345;51.136;16.886;2023-03-15T12:24:03;14.40;44.30
6956;DHT22;50345;51.136;16.886;2023-03-15T12:26:42;14.30;42.00
6956;DHT22;50345;51.136;16.886;2023-03-15T12:29:29;13.90;42.00
6956;DHT22;50345;51.136;16.886;2023-03-15T12:34:44;12.40;43.40
6956;DHT22;50345;51.136;16.886;2023-03-15T12:37:20;12.00;44.60
6956;DHT22;50345;51.136;16.886;2023-03-15T12:39:50;11.90;45.50
6956;DHT22;50345;51.136;16.886;2023-03-15T12:55:53;10.10;49.40
6956;DHT22;50345;51.136;16.886;2023-03-15T12:58:24;10.10;49.20
6956;DHT22;50345;51.136;16.886;2023-03-15T13:00:52;10.20;48.60
6956;DHT22;50345;51.136;16.886;2023-03-15T13:03:24;10.30;48.30
6956;DHT22;50345;51.136;16.886;2023-03-15T13:08:40;10.30;48.50
6956;DHT22;50345;51.136;16.886;2023-03-15T13:14:14;10.10;48.90
6956;DHT22;50345;51.136;16.886;2023-03-15T13:16:49;9.90;50.40
6956;DHT22;50345;51.136;16.886;2023-03-15T13:19:25;9.80;50.80
6956;DHT22;50345;51.136;16.886;2023-03-15T13:22:12;9.60;51.00
6956;DHT22;50345;51.136;16.886;2023-03-15T13:25:16;9.50;51.00
6956;DHT22;50345;51.136;16.886;2023-03-15T13:28:05;9.40;51.40
6956;DHT22;50345;51.136;16.886;2023-03-15T13:30:48;9.40;52.30
6956;DHT22;50345;51.136;16.886;2023-03-15T13:33:23;9.30;52.00
6956;DHT22;50345;51.136;16.886;2023-03-15T13:36:01;9.40;52.40
6956;DHT22;50345;51.136;16.886;2023-03-15T13:38:39;9.40;52.60
6956;DHT22;50345;51.136;16.886;2023-03-15T13:41:25;9.50;52.80
6956;DHT22;50345;51.136;16.886;2023-03-15T13:43:53;9.50;52.80
6956;DHT22;50345;51.136;16.886;2023-03-15T13:46:21;9.60;53.10
6956;DHT22;50345;51.136;16.886;2023-03-15T13:48:51;9.70;53.80
6956;DHT22;50345;51.136;16.886;2023-03-15T13:51:31;9.90;54.00
6956;DHT22;50345;51.136;16.886;2023-03-15T13:56:58;10.40;53.00
6956;DHT22;50345;51.136;16.886;2023-03-15T13:59:30;10.80;51.20
6956;DHT22;50345;51.136;16.886;2023-03-15T14:01:57;10.80;51.50
6956;DHT22;50345;51.136;16.886;2023-03-15T14:04:24;10.80;50.90
6956;DHT22;50345;51.136;16.886;2023-03-15T14:06:50;11.20;49.90
6956;DHT22;50345;51.136;16.886;2023-03-15T14:09:27;11.40;50.10
6956;DHT22;50345;51.136;16.886;2023-03-15T14:12:02;12.20;49.80
6956;DHT22;50345;51.136;16.886;2023-03-15T14:14:29;12.50;49.50
6956;DHT22;50345;51.136;16.886;2023-03-15T14:16:57;12.70;48.80
6956;DHT22;50345;51.136;16.886;2023-03-15T14:19:25;12.80;48.50
6956;DHT22;50345;51.136;16.886;2023-03-15T14:21:56;12.70;48.20
6956;DHT22;50345;51.136;16.886;2023-03-15T14:24:46;12.60;48.00
6956;DHT22;50345;51.136;16.886;2023-03-15T14:27:19;12.40;48.60
6956;DHT22;50345;51.136;16.886;2023-03-15T14:29:50;12.20;48.50
6956;DHT22;50345;51.136;16.886;2023-03-15T14:37:42;17.50;43.10
6956;DHT22;50345;51.136;16.886;2023-03-15T14:42:46;19.20;39.80
6956;DHT22;50345;51.136;16.886;2023-03-15T14:45:13;18.90;39.80
6956;DHT22;50345;51.136;16.886;2023-03-15T14:47:51;18.50;39.10
6956;DHT22;50345;51.136;16.886;2023-03-15T14:50:20;18.20;38.30
6956;DHT22;50345;51.136;16.886;2023-03-15T14:52:46;16.90;39.10
6956;DHT22;50345;51.136;16.886;2023-03-15T14:55:22;16.90;40.00
6956;DHT22;50345;51.136;16.886;2023-03-15T14:57:48;17.20;40.70
6956;DHT22;50345;51.136;16.886;2023-03-15T15:00:16;17.90;40.20
6956;DHT22;50345;51.136;16.886;2023-03-15T15:02:43;18.80;38.50
6956;DHT22;50345;51.136;16.886;2023-03-15T15:05:30;19.10;38.30
6956;DHT22;50345;51.136;16.886;2023-03-15T15:08:08;19.00;38.40
6956;DHT22;50345;51.136;16.886;2023-03-15T15:10:34;17.70;39.20
6956;DHT22;50345;51.136;16.886;2023-03-15T15:13:01;16.20;41.10
6956;DHT22;50345;51.136;16.886;2023-03-15T15:15:28;14.10;45.30
6956;DHT22;50345;51.136;16.886;2023-03-15T15:17:53;13.00;47.80
6956;DHT22;50345;51.136;16.886;2023-03-15T15:20:20;12.90;48.20
6956;DHT22;50345;51.136;16.886;2023-03-15T15:22:47;12.20;50.00
6956;DHT22;50345;51.136;16.886;2023-03-15T15:27:39;11.00;52.80
6956;DHT22;50345;51.136;16.886;2023-03-15T15:30:08;10.70;54.50
6956;DHT22;50345;51.136;16.886;2023-03-15T15:32:34;10.80;55.30
6956;DHT22;50345;51.136;16.886;2023-03-15T15:34:59;11.80;54.90
6956;DHT22;50345;51.136;16.886;2023-03-15T15:37:26;13.20;52.50
6956;DHT22;50345;51.136;16.886;2023-03-15T15:39:52;13.80;49.20
6956;DHT22;50345;51.136;16.886;2023-03-15T15:42:17;13.70;49.30
6956;DHT22;50345;51.136;16.886;2023-03-15T15:44:43;13.20;49.40
6956;DHT22;50345;51.136;16.886;2023-03-15T15:47:10;12.70;49.90
6956;DHT22;50345;51.136;16.886;2023-03-15T15:49:36;12.10;51.00
6956;DHT22;50345;51.136;16.886;2023-03-15T15:52:01;11.50;51.90
6956;DHT22;50345;51.136;16.886;2023-03-15T15:54:28;11.40;53.50
6956;DHT22;50345;51.136;16.886;2023-03-15T15:57:00;12.40;54.20
6956;DHT22;50345;51.136;16.886;2023-03-15T15:59:26;14.80;49.10
6956;DHT22;50345;51.136;16.886;2023-03-15T16:01:53;15.40;48.50
6956;DHT22;50345;51.136;16.886;2023-03-15T16:04:19;15.80;46.30
6956;DHT22;50345;51.136;16.886;2023-03-15T16:06:50;15.40;45.40
6956;DHT22;50345;51.136;16.886;2023-03-15T16:09:17;14.60;46.30
6956;DHT22;50345;51.136;16.886;2023-03-15T16:11:43;13.00;48.10
6956;DHT22;50345;51.136;16.886;2023-03-15T16:14:11;12.70;48.80
6956;DHT22;50345;51.136;16.886;2023-03-15T16:16:37;11.60;49.90
6956;DHT22;50345;51.136;16.886;2023-03-15T16:19:03;10.80;51.80
6956;DHT22;50345;51.136;16.886;2023-03-15T16:21:32;9.80;55.00
6956;DHT22;50345;51.136;16.886;2023-03-15T16:26:27;8.80;58.30
6956;DHT22;50345;51.136;16.886;2023-03-15T16:28:52;8.70;59.40
6956;DHT22;50345;51.136;16.886;2023-03-15T16:31:19;8.00;63.20
6956;DHT22;50345;51.136;16.886;2023-03-15T16:33:46;7.80;68.20
6956;DHT22;50345;51.136;16.886;2023-03-15T16:36:16;7.50;78.00
6956;DHT22;50345;51.136;16.886;2023-03-15T16:38:41;7.30;90.60
6956;DHT22;50345;51.136;16.886;2023-03-15T16:41:11;7.10;95.30
6956;DHT22;50345;51.136;16.886;2023-03-15T16:43:37;7.00;99.90
6956;DHT22;50345;51.136;16.886;2023-03-15T16:46:11;6.60;99.90
6956;DHT22;50345;51.136;16.886;2023-03-15T16:48:36;6.50;99.90
6956;DHT22;50345;51.136;16.886;2023-03-15T16:51:02;6.40;99.90
6956;DHT22;50345;51.136;16.886;2023-03-15T16:53:30;6.30;99.90
6956;DHT22;50345;51.136;16.886;2023-03-15T16:55:57;6.20;99.90
6956;DHT22;50345;51.136;16.886;2023-03-15T16:58:23;6.10;99.90
6956;DHT22;50345;51.136;16.886;2023-03-15T17:00:48;6.00;99.90
6956;DHT22;50345;51.136;16.886;2023-03-15T17:03:15;6.00;99.90
6956;DHT22;50345;51.136;16.886;2023-03-15T17:05:43;5.90;99.90
6956;DHT22;50345;51.136;16.886;2023-03-15T17:08:11;5.90;99.90
6956;DHT22;50345;51.136;16.886;2023-03-15T17:10:39;5.80;99.90
6956;DHT22;50345;51.136;16.886;2023-03-15T17:13:06;5.80;99.90
6956;DHT22;50345;51.136;16.886;2023-03-15T17:15:33;5.70;99.90